Monticello, Maine
46° 20' 20"N, 67° 53' 10"W, Elevation 575 ft.
Eastern Time

Hourly observations for the last 48 hours

Date

Time

Temperature (F) Humi-
dity
(%)
Wind
(mph)
Pressure Rain (in) Sun
(W/m2)
UV ET
(in)
Air Dew 6 Hour 1 Hr 3 Hr 6 Hr Day
Alt
(in)
Sea
Level
(mb)
Max Min
20 01:00 31.0 29.7 31.2 30.9 95 Calm 29.80 1009.3 0.00 0 0.0 0.000
20 00:00 31.0 29.7 95 Calm 29.80 1009.2 0.01 0 0.0 0.009
19 23:00 31.0 29.7 95 Calm 29.80 1009.2 0.01 0 0.0 0.009
19 22:00 31.0 29.7 95 Calm 29.80 1009.1 0.01 0 0.0 0.009
19 21:00 30.9 29.6 95 Calm 29.79 1008.9 0.01 0 0.0 0.009
19 20:00 31.2 29.9 95 Calm 29.77 1008.2 0.01 0 0.0 0.009
19 19:00 31.2 30.2 32.5 31.2 96 Calm 29.75 1007.6 0.01 0.01 0 0.0 0.009
19 18:00 31.3 30.0 95 Calm 29.74 1007.2 0.01 0 0.0 0.009
19 17:00 31.5 30.2 95 Calm 29.72 1006.4 0.01 0 0.0 0.009
19 16:00 31.9 30.6 95 Calm 29.70 1005.7 0.01 0.01 0.01 0 0.0 0.009
19 15:00 32.4 31.1 95 Calm 29.68 1005.3 0.00 16 0.0 0.008
19 14:00 32.5 31.0 94 Calm 29.66 1004.5 0.00 84 0.0 0.007
19 13:00 32.4 30.6 32.5 31.9 93 Calm 29.66 1004.4 0.00 81 0.0 0.005
19 12:00 32.4 30.9 94 Calm 29.65 1003.9 0.00 174 0.9 0.003
19 11:00 32.1 30.3 93 Calm 29.66 1004.4 0.00 116 0.5 0.002
19 10:00 32.1 30.3 93 Calm 29.65 1004.0 0.00 90 0.0 0.001
19 09:00 32.2 30.7 94 Calm 29.63 1003.5 0.00 60 0.0 0.000
19 08:00 32.2 30.7 94 Calm 29.63 1003.4 0.00 40 0.0 0.000
19 07:00 32.4 31.1 32.4 29.8 95 Calm 29.62 1002.9 0.00 7 0.0 0.000
19 06:00 32.4 31.1 95 Calm 29.62 1002.9 0.00 0 0.0 0.000
19 05:00 32.4 31.1 95 Calm 29.60 1002.5 0.00 0 0.0 0.000
19 04:00 31.9 30.6 95 Calm 29.60 1002.4 0.00 0 0.0 0.000
19 03:00 31.5 30.2 95 NNW 4 G 11 29.62 1002.9 0.00 0 0.0 0.000
19 02:00 30.1 28.3 93 N 3 G 6 29.62 1002.9 0.00 0 0.0 0.000
19 01:00 30.0 28.2 30.0 29.1 93 N 6 G 14 29.61 1002.8 0.00 0 0.0 0.000
19 00:00 29.5 27.5 92 N 4 G 11 29.65 1004.0 0.00 0 0.0 0.026
18 23:00 29.1 26.5 90 N 6 G 15 29.67 1004.8 0.00 0 0.0 0.026
18 22:00 29.3 26.5 89 N 7 G 14 29.70 1005.8 0.00 0 0.0 0.026
18 21:00 29.4 25.7 86 N 5 G 12 29.72 1006.5 0.00 0 0.0 0.025
18 20:00 29.5 23.5 78 N 7 G 11 29.76 1008.0 0.00 0 0.0 0.024
18 19:00 29.4 23.4 30.7 28.7 78 N 6 G 10 29.79 1008.9 0.00 0 0.0 0.023
18 18:00 29.0 22.4 76 N 5 G 9 29.83 1010.3 0.00 0 0.0 0.022
18 17:00 28.7 21.8 75 N 6 G 9 29.85 1011.0 0.00 0 0.0 0.021
18 16:00 29.0 21.1 72 N 6 G 10 29.87 1011.6 0.00 0 0.0 0.020
18 15:00 30.1 21.8 71 N 7 G 10 29.90 1012.6 0.00 39 0.0 0.018
18 14:00 30.6 23.0 73 N 8 G 12 29.92 1013.1 0.00 90 0.0 0.016
18 13:00 30.1 20.8 30.1 7.2 68 N 6 G 10 29.94 1014.0 0.00 130 0.7 0.013
18 12:00 29.1 18.4 64 N 5 G 9 29.98 1015.3 0.00 153 1.1 0.008
18 11:00 26.1 15.9 65 N 7 G 11 30.02 1016.5 0.00 425 1.9 0.004
18 10:00 21.4 15.3 77 N 5 G 10 30.07 1018.3 0.00 323 1.4 0.001
18 09:00 15.2 12.3 88 NNE 2 G 4 30.10 1019.4 0.00 200 0.7 0.000
18 08:00 7.2 3.1 83 NNE 0 G 2 30.12 1020.0 0.00 70 0.0 0.000
18 07:00 8.8 5.0 9.2 3.5 84 NNE 0 G 3 30.12 1019.9 0.00 21 0.0 0.000
18 06:00 5.0 0.7 82 NNW 1 G 2 30.12 1020.1 0.00 0 0.0 0.000
18 05:00 6.7 2.6 83 NNW 1 G 2 30.13 1020.4 0.00 0 0.0 0.000
18 04:00 4.3 1.0 86 NW 2 G 5 30.15 1021.0 0.00 0 0.0 0.000
18 03:00 3.9 -0.6 81 NNW 0 G 1 30.17 1021.8 0.00 0 0.0 0.000
18 02:00 5.2 1.9 86 NNW 0 G 3 30.18 1021.9 0.00 0 0.0 0.000
18 01:00 5.0 1.2 12.6 5.0 84 Calm 30.20 1022.9 0.00 0 0.0 0.000
18 00:00 5.4 1.9 85 Calm 30.24 1023.9 0.03 0 0.0 0.028
17 23:00 5.6 1.0 81 Calm 30.25 1024.5 0.03 0 0.0 0.028
17 22:00 8.1 4.0 83 ESE 0 G 1 30.25 1024.6 0.03 0 0.0 0.028
17 21:00 9.2 5.3 84 Calm 30.27 1025.3 0.03 0 0.0 0.028
17 20:00 10.5 5.6 80 Calm 30.29 1025.9 0.03 0 0.0 0.028
17 19:00 12.4 8.5 29.7 12.3 84 Calm 30.31 1026.4 0.02 0.03 0 0.0 0.028
17 18:00 13.5 8.2 79 Calm 30.31 1026.5 0.03 0 0.0 0.028
17 17:00 16.4 8.6 71 Calm 30.32 1026.8 0.03 0 0.0 0.028
17 16:00 23.8 12.3 61 Calm 30.33 1027.1 0.02 0.03 5 0.0 0.028
17 15:00 28.4 13.4 53 SE 1 G 4 30.33 1027.1 0.01 0.03 30 0.0 0.026
17 14:00 29.7 14.2 52 E 2 G 5 30.34 1027.6 0.01 0.02 229 0.6 0.022
17 13:00 28.7 13.7 28.7 3.7 53 ESE 2 G 4 30.38 1028.7 0.01 0.01 0.01 0.01 345 1.2 0.017
17 12:00 26.7 12.3 54 E 3 G 4 30.39 1029.2 0.00 420 1.7 0.012
17 11:00 25.7 12.2 56 NNE 3 G 6 30.42 1030.2 0.00 446 1.9 0.007
17 10:00 22.4 11.7 63 NNE 0 G 4 30.44 1031.0 0.00 418 1.5 0.003
17 09:00 17.3 8.9 69 WNW 1 G 3 30.45 1031.4 0.00 336 0.9 0.001
17 08:00 7.6 4.3 86 WSW 0 G 6 30.45 1031.2 0.00 202 0.0 0.000
17 07:00 3.9 -1.2 9.5 3.9 79 Calm 30.45 1031.1 0.00 28 0.0 0.000
17 06:00 6.1 1.5 81 N 1 G 3 30.44 1030.8 0.00 0 0.0 0.000
17 05:00 9.3 4.1 79 N 0 G 1 30.42 1030.2 0.00 0 0.0 0.000
17 04:00 7.7 3.4 82 NNW 0 G 3 30.42 1030.2 0.00 0 0.0 0.000
17 03:00 8.1 2.7 78 WNW 0 G 1 30.42 1030.3 0.00 0 0.0 0.000
17 02:00 8.6 3.4 79 WNW 0 G 4 30.44 1030.8 0.00 0 0.0 0.000

Data generated by WxSolution Version 1.9.1.7, Build 2018.11.24.